Time;durP1;ratioP1;P1;durP2;ratioP2;P2;SDS_P1;SDS_P2;PMS_P1;PMS_P2;Temp;Humidity;BMP_temperature;BMP_pressure;BME280_temperature;BME280_humidity;BME280_pressure;Samples;Min_cycle;Max_cycle;Signal;HPM_P1;HPM_P2
2022/08/24 00:01:14;;;;;;;43.85;38.80;;;20.90;99.90;;;;;;4975663;28;20451;-87
2022/08/24 00:03:41;;;;;;;41.42;37.00;;;20.80;99.90;;;;;;4974426;28;20082;-87
2022/08/24 00:06:11;;;;;;;42.45;38.00;;;20.70;99.90;;;;;;4975497;28;20047;-86
2022/08/24 00:08:39;;;;;;;42.08;37.63;;;20.80;99.90;;;;;;4943673;28;20051;-87
2022/08/24 00:11:06;;;;;;;42.95;38.45;;;20.80;99.90;;;;;;4975433;28;20078;-86
2022/08/24 00:13:32;;;;;;;43.33;38.65;;;20.70;99.90;;;;;;4957502;28;20055;-86
2022/08/24 00:15:58;;;;;;;42.67;38.22;;;20.50;99.90;;;;;;4958511;28;20146;-86
2022/08/24 00:18:24;;;;;;;43.22;37.97;;;20.80;99.90;;;;;;4974554;28;20055;-86
2022/08/24 00:20:50;;;;;;;43.95;39.30;;;20.50;99.90;;;;;;4975459;28;20085;-87
2022/08/24 00:23:16;;;;;;;40.67;36.38;;;20.60;99.90;;;;;;4958275;28;20058;-86
2022/08/24 00:25:42;;;;;;;42.05;37.38;;;20.40;99.90;;;;;;4974376;28;20051;-86
2022/08/24 00:28:08;;;;;;;40.50;36.25;;;20.40;99.90;;;;;;4974008;28;20562;-86
2022/08/24 00:30:34;;;;;;;41.72;37.25;;;20.50;99.90;;;;;;4974219;28;20053;-86
2022/08/24 00:33:00;;;;;;;41.63;37.20;;;20.30;99.90;;;;;;4973758;28;20599;-86
2022/08/24 00:35:26;;;;;;;42.28;37.55;;;20.20;99.90;;;;;;4975110;28;20042;-85
2022/08/24 00:37:53;;;;;;;41.38;37.08;;;20.30;99.90;;;;;;4975012;28;20054;-86
2022/08/24 00:40:37;;;;;;;42.05;36.95;;;20.30;99.90;;;;;;4973959;28;20051;-86
2022/08/24 00:43:05;;;;;;;42.00;37.50;;;20.50;99.90;;;;;;4973338;28;20042;-86
2022/08/24 00:45:36;;;;;;;43.35;37.78;;;20.30;99.90;;;;;;4973928;28;20059;-86
2022/08/24 00:48:06;;;;;;;42.15;37.53;;;20.10;99.90;;;;;;4974964;28;20050;-86
2022/08/24 00:50:55;;;;;;;40.88;36.20;;;20.20;99.90;;;;;;4973983;28;20446;-86
2022/08/24 00:53:29;;;;;;;42.03;37.42;;;20.10;99.90;;;;;;4973067;28;20097;-85
2022/08/24 00:56:07;;;;;;;44.92;39.13;;;20.10;99.90;;;;;;4973537;28;20047;-87
2022/08/24 00:58:39;;;;;;;41.67;37.45;;;20.20;99.90;;;;;;4973892;28;20137;-86
2022/08/24 01:01:07;;;;;;;42.30;37.80;;;20.30;99.90;;;;;;4973566;28;20511;-86
2022/08/24 01:03:36;;;;;;;44.97;39.42;;;20.20;99.90;;;;;;4957339;28;20086;-86
2022/08/24 01:06:02;;;;;;;42.03;37.42;;;20.20;99.90;;;;;;4973773;28;20059;-86
2022/08/24 01:08:28;;;;;;;49.28;41.38;;;20.10;99.90;;;;;;4974497;28;20054;-87
2022/08/24 01:11:10;;;;;;;47.95;41.22;;;20.20;99.90;;;;;;4974373;28;20491;-87
2022/08/24 01:13:37;;;;;;;46.17;39.60;;;20.10;99.90;;;;;;4956865;28;20047;-86
2022/08/24 01:16:06;;;;;;;45.40;40.47;;;20.00;99.90;;;;;;4973168;28;20574;-87
2022/08/24 01:18:50;;;;;;;47.58;41.42;;;20.10;99.90;;;;;;4974622;28;20454;-87
2022/08/24 01:21:23;;;;;;;47.92;40.75;;;20.00;99.90;;;;;;4973503;28;20051;-87
2022/08/24 01:23:51;;;;;;;;;;;19.90;99.90;;;;;;4973794;28;20043;-87
2022/08/24 01:26:39;;;;;;;48.92;41.60;;;19.90;99.90;;;;;;4974424;28;20012;-87
2022/08/24 01:29:11;;;;;;;46.83;41.72;;;19.90;99.90;;;;;;4956969;28;20145;-87
2022/08/24 01:31:37;;;;;;;49.15;41.63;;;20.10;99.90;;;;;;4957715;28;20081;-86
2022/08/24 01:34:03;;;;;;;45.08;40.05;;;19.80;99.90;;;;;;4973217;28;20043;-86
2022/08/24 01:36:30;;;;;;;49.90;41.60;;;19.80;99.90;;;;;;4973196;28;20055;-86
2022/08/24 01:39:01;;;;;;;47.05;40.78;;;19.70;99.90;;;;;;4974080;28;20054;-87
2022/08/24 01:41:27;;;;;;;46.63;40.78;;;19.80;99.90;;;;;;4973579;28;20046;-86
2022/08/24 01:43:52;;;;;;;45.05;39.33;;;19.70;99.90;;;;;;4972623;28;20046;-87
2022/08/24 01:46:18;;;;;;;46.88;41.42;;;19.70;99.90;;;;;;4974371;28;20062;-86
2022/08/24 01:48:44;;;;;;;46.45;41.42;;;19.80;99.90;;;;;;4974566;28;20070;-87
2022/08/24 01:51:10;;;;;;;50.53;41.92;;;19.70;99.90;;;;;;4973094;28;20051;-87
2022/08/24 01:53:35;;;;;;;48.63;40.80;;;19.60;99.90;;;;;;4972910;28;20047;-87
2022/08/24 01:56:01;;;;;;;45.72;40.30;;;19.70;99.90;;;;;;4957309;28;20513;-86
2022/08/24 01:58:27;;;;;;;47.60;41.25;;;19.50;99.90;;;;;;4974276;28;20051;-87
2022/08/24 02:00:53;;;;;;;47.13;41.05;;;19.90;99.90;;;;;;4957181;28;20050;-86
2022/08/24 02:03:20;;;;;;;45.33;40.50;;;19.70;99.90;;;;;;4973999;28;20043;-86
2022/08/24 02:05:47;;;;;;;45.58;40.42;;;19.50;99.90;;;;;;4976326;28;20059;-86
2022/08/24 02:08:13;;;;;;;45.60;39.50;;;19.60;99.90;;;;;;4976240;28;20086;-85
2022/08/24 02:10:39;;;;;;;42.40;37.83;;;19.40;99.90;;;;;;4978278;28;20521;-86
2022/08/24 02:13:04;;;;;;;46.13;39.78;;;19.40;99.90;;;;;;4976298;28;20086;-86
2022/08/24 02:15:38;;;;;;;44.22;39.40;;;19.50;99.90;;;;;;4977602;28;20098;-86
2022/08/24 02:18:06;;;;;;;46.22;41.22;;;19.70;99.90;;;;;;4977584;28;20070;-86
2022/08/24 02:20:34;;;;;;;42.90;37.38;;;19.50;99.90;;;;;;4976479;28;20463;-85
2022/08/24 02:23:00;;;;;;;43.72;38.95;;;19.40;99.90;;;;;;4977379;28;20109;-87
2022/08/24 02:25:29;;;;;;;45.35;39.25;;;19.20;99.90;;;;;;4977442;28;20051;-86
2022/08/24 02:27:56;;;;;;;43.72;37.13;;;19.50;99.90;;;;;;4977511;28;20051;-86
2022/08/24 02:30:22;;;;;;;47.00;39.72;;;19.50;99.90;;;;;;4976233;28;20499;-87
2022/08/24 02:32:48;;;;;;;45.15;39.38;;;19.20;99.90;;;;;;4977326;28;20054;-86
2022/08/24 02:35:14;;;;;;;45.90;40.30;;;19.40;99.90;;;;;;4975835;28;20042;-86
2022/08/24 02:37:39;;;;;;;48.20;41.72;;;19.30;99.90;;;;;;4977456;28;20664;-86
2022/08/24 02:40:07;;;;;;;47.80;41.15;;;19.40;99.90;;;;;;4976136;28;20047;-86
2022/08/24 02:42:33;;;;;;;49.28;41.70;;;19.20;99.90;;;;;;4977114;28;20269;-86
2022/08/24 02:45:00;;;;;;;49.20;40.95;;;19.10;99.90;;;;;;4975488;28;20051;-87
2022/08/24 02:47:26;;;;;;;51.40;42.78;;;19.40;99.90;;;;;;4976130;28;20047;-87
2022/08/24 02:49:51;;;;;;;49.25;41.85;;;19.30;99.90;;;;;;4976113;28;20073;-87
2022/08/24 02:52:17;;;;;;;46.70;41.55;;;19.50;99.90;;;;;;4976968;28;20054;-86
2022/08/24 02:54:43;;;;;;;49.92;43.00;;;19.00;99.90;;;;;;4977095;28;20046;-87
2022/08/24 02:57:09;;;;;;;45.17;39.83;;;19.10;99.90;;;;;;4976127;28;20046;-87
2022/08/24 02:59:35;;;;;;;48.83;42.08;;;;;;;;;;4976833;28;20516;-87
2022/08/24 03:02:00;;;;;;;43.67;38.42;;;19.00;99.90;;;;;;4975398;28;20513;-87
2022/08/24 03:04:26;;;;;;;50.55;40.50;;;19.00;99.90;;;;;;4976451;28;20043;-87
2022/08/24 03:06:52;;;;;;;44.88;38.92;;;19.30;99.90;;;;;;4975925;28;20056;-86
2022/08/24 03:09:19;;;;;;;46.85;39.30;;;19.00;99.90;;;;;;4976671;28;20451;-87
2022/08/24 03:11:44;;;;;;;45.40;40.33;;;19.00;99.90;;;;;;4959968;28;20051;-87
2022/08/24 03:14:10;;;;;;;48.00;39.78;;;19.10;99.90;;;;;;4974632;28;20063;-87
2022/08/24 03:16:37;;;;;;;45.38;38.58;;;19.00;99.90;;;;;;4974790;28;20059;-87
2022/08/24 03:19:03;;;;;;;44.15;37.95;;;19.10;99.90;;;;;;4976233;28;20055;-86
2022/08/24 03:21:29;;;;;;;46.22;40.22;;;18.90;99.90;;;;;;4975616;28;20047;-86
2022/08/24 03:23:55;;;;;;;47.60;39.35;;;18.90;99.90;;;;;;4975223;28;20280;-87
2022/08/24 03:26:21;;;;;;;46.70;40.47;;;18.80;99.90;;;;;;4975370;28;20038;-86
2022/08/24 03:28:47;;;;;;;45.05;38.28;;;18.90;99.90;;;;;;4975242;28;20042;-87
2022/08/24 03:31:13;;;;;;;49.53;40.20;;;18.90;99.90;;;;;;4975343;28;20344;-87
2022/08/24 03:33:40;;;;;;;46.83;39.45;;;18.90;99.90;;;;;;4975964;28;20054;-86
2022/08/24 03:36:06;;;;;;;47.63;38.97;;;18.70;99.90;;;;;;4974966;28;20526;-86
2022/08/24 03:38:31;;;;;;;44.53;38.70;;;19.00;99.90;;;;;;4976340;28;20137;-86
2022/08/24 03:40:57;;;;;;;51.47;40.70;;;18.90;99.90;;;;;;4974988;28;20047;-87
2022/08/24 03:46:07;;;;;;;48.58;40.75;;;18.80;99.90;;;;;;4975902;28;20054;-86
2022/08/24 03:48:33;;;;;;;50.40;40.03;;;18.70;99.90;;;;;;4975653;28;20475;-87
2022/08/24 03:50:59;;;;;;;50.75;40.25;;;18.80;99.90;;;;;;4975126;28;20054;-86
2022/08/24 03:53:25;;;;;;;51.13;40.58;;;18.80;99.90;;;;;;4974989;28;20054;-87
2022/08/24 03:55:51;;;;;;;48.28;40.05;;;18.70;99.90;;;;;;4958816;28;20054;-87
2022/08/24 03:58:17;;;;;;;48.03;40.03;;;18.60;99.90;;;;;;4975908;28;20081;-87
2022/08/24 04:00:43;;;;;;;47.65;39.90;;;18.80;99.90;;;;;;4974510;28;20082;-87
2022/08/24 04:03:10;;;;;;;44.80;38.35;;;18.60;99.90;;;;;;4975762;28;20047;-87
2022/08/24 04:05:37;;;;;;;42.80;37.47;;;18.60;99.90;;;;;;4974632;28;20050;-86
2022/08/24 04:08:04;;;;;;;45.95;37.67;;;18.80;99.90;;;;;;4958315;28;20066;-87
2022/08/24 04:10:30;;;;;;;45.90;37.58;;;18.70;99.90;;;;;;4975382;28;20043;-87
2022/08/24 04:12:56;;;;;;;44.75;36.55;;;18.50;99.90;;;;;;4974318;28;20054;-88
2022/08/24 04:15:24;;;;;;;44.92;36.78;;;18.80;99.90;;;;;;4974430;28;20047;-87
2022/08/24 04:17:50;;;;;;;47.00;37.20;;;18.50;99.90;;;;;;4974486;28;20054;-87
2022/08/24 04:20:15;;;;;;;48.58;40.00;;;18.60;99.90;;;;;;4974309;28;20047;-87
2022/08/24 04:22:42;;;;;;;53.78;41.83;;;18.50;99.90;;;;;;4974131;28;20050;-87
2022/08/24 04:25:08;;;;;;;49.75;40.00;;;18.40;99.90;;;;;;4974321;28;20062;-87
2022/08/24 04:27:34;;;;;;;49.78;39.60;;;18.50;99.90;;;;;;4957283;28;20042;-86
2022/08/24 04:29:59;;;;;;;48.20;40.25;;;18.30;99.90;;;;;;4958324;28;20170;-87
2022/08/24 04:32:25;;;;;;;48.80;40.25;;;18.50;99.90;;;;;;4974214;28;20498;-87
2022/08/24 04:34:51;;;;;;;44.80;37.53;;;18.40;99.90;;;;;;4975193;28;20137;-87
2022/08/24 04:37:17;;;;;;;46.72;39.30;;;18.40;99.90;;;;;;4974763;28;20047;-87
2022/08/24 04:39:43;;;;;;;45.58;39.25;;;18.50;99.90;;;;;;4975134;28;20136;-87
2022/08/24 04:42:09;;;;;;;47.55;39.80;;;18.30;99.90;;;;;;4973895;28;20054;-87
2022/08/24 04:44:35;;;;;;;47.90;38.42;;;18.50;99.90;;;;;;4974281;28;20047;-86
2022/08/24 04:47:03;;;;;;;42.60;37.15;;;18.40;99.90;;;;;;4975007;28;20082;-86
2022/08/24 04:49:29;;;;;;;44.90;38.17;;;18.60;99.90;;;;;;4973884;28;20094;-87
2022/08/24 04:51:55;;;;;;;41.53;36.22;;;18.30;99.90;;;;;;4975037;28;20057;-86
2022/08/24 04:54:20;;;;;;;43.10;37.42;;;18.20;99.90;;;;;;4973722;28;20051;-87
2022/08/24 04:56:46;;;;;;;42.13;36.17;;;18.30;99.90;;;;;;4957751;28;20051;-85
2022/08/24 04:59:12;;;;;;;41.03;36.22;;;18.30;99.90;;;;;;4941619;28;20129;-86
2022/08/24 05:01:41;;;;;;;42.80;36.13;;;18.40;99.90;;;;;;4973838;28;20046;-85
2022/08/24 05:04:06;;;;;;;42.45;37.17;;;18.50;99.90;;;;;;4974329;28;20137;-86
2022/08/24 05:06:33;;;;;;;42.72;37.55;;;18.40;99.90;;;;;;4976923;28;20082;-87
2022/08/24 05:09:00;;;;;;;40.20;35.78;;;18.30;99.90;;;;;;4977706;28;20057;-86
2022/08/24 05:11:27;;;;;;;38.40;34.22;;;18.40;99.90;;;;;;4979332;28;20107;-86
2022/08/24 05:13:54;;;;;;;40.97;35.00;;;18.50;99.90;;;;;;4976709;28;20177;-86
2022/08/24 05:16:21;;;;;;;42.05;36.40;;;18.30;99.90;;;;;;4960441;28;20055;-86
2022/08/24 05:18:48;;;;;;;43.42;36.75;;;18.40;99.90;;;;;;4974452;28;20121;-85
2022/08/24 05:21:17;;;;;;;42.38;35.47;;;18.40;99.90;;;;;;4959257;28;20051;-85
2022/08/24 05:23:43;;;;;;;43.03;35.45;;;18.60;99.90;;;;;;4975629;28;20051;-86
2022/08/24 05:26:16;;;;;;;41.35;36.05;;;18.30;99.90;;;;;;4974087;28;20062;-86
2022/08/24 05:28:42;;;;;;;43.28;35.97;;;18.40;99.90;;;;;;4973623;28;20054;-85
2022/08/24 05:31:11;;;;;;;40.17;34.67;;;18.40;99.90;;;;;;4974870;28;20109;-86
2022/08/24 05:33:37;;;;;;;43.65;37.08;;;18.60;99.90;;;;;;4957276;28;20070;-86
2022/08/24 05:36:05;;;;;;;42.35;36.38;;;18.50;99.90;;;;;;4973439;28;20038;-86
2022/08/24 05:38:32;;;;;;;45.08;36.53;;;18.60;99.90;;;;;;4974849;28;20047;-87
2022/08/24 05:41:02;;;;;;;44.28;36.72;;;18.60;99.90;;;;;;4960954;28;20050;-86
2022/08/24 05:43:28;;;;;;;41.30;35.20;;;18.50;99.90;;;;;;4977824;28;20059;-86
2022/08/24 05:45:54;;;;;;;40.97;33.83;;;18.80;99.90;;;;;;4977132;28;20096;-86
2022/08/24 05:48:20;;;;;;;38.85;33.78;;;18.80;99.90;;;;;;4977567;28;20042;-86
2022/08/24 05:50:54;;;;;;;36.88;32.45;;;18.90;99.90;;;;;;4960820;28;20043;-87
2022/08/24 05:53:20;;;;;;;35.95;32.05;;;19.00;99.90;;;;;;4977890;28;20058;-86
2022/08/24 05:55:46;;;;;;;35.50;31.67;;;19.00;99.90;;;;;;4976591;28;20043;-86
2022/08/24 05:58:12;;;;;;;37.42;33.33;;;19.00;99.90;;;;;;4978146;28;20054;-86
2022/08/24 06:00:38;;;;;;;36.30;32.58;;;19.00;99.90;;;;;;4976845;28;20391;-86
2022/08/24 06:03:03;;;;;;;38.30;32.65;;;19.00;99.90;;;;;;4978326;28;20043;-87
2022/08/24 06:05:29;;;;;;;38.70;34.38;;;19.10;99.90;;;;;;4960771;28;20055;-87
2022/08/24 06:07:55;;;;;;;39.42;35.03;;;19.00;99.90;;;;;;4976652;28;20047;-86
2022/08/24 06:10:21;;;;;;;42.90;36.38;;;19.00;99.90;;;;;;4976592;28;20090;-86
2022/08/24 06:12:47;;;;;;;40.83;36.25;;;19.00;99.90;;;;;;4976808;28;20058;-87
2022/08/24 06:15:13;;;;;;;41.65;35.40;;;19.30;99.90;;;;;;4959934;28;20109;-87
2022/08/24 06:17:38;;;;;;;40.47;35.03;;;19.20;99.90;;;;;;4976444;28;20403;-85
2022/08/24 06:20:06;;;;;;;41.20;34.58;;;19.00;99.90;;;;;;4960509;28;20062;-86
2022/08/24 06:22:32;;;;;;;42.65;36.95;;;19.10;99.90;;;;;;4960582;28;20050;-86
2022/08/24 06:27:44;;;;;;;48.42;39.75;;;19.40;99.90;;;;;;4978079;28;20050;-86
2022/08/24 06:30:10;;;;;;;50.33;41.22;;;19.50;99.90;;;;;;4976375;28;20495;-86
2022/08/24 06:32:38;;;;;;;51.45;40.17;;;19.40;99.90;;;;;;4977427;28;20105;-86
2022/08/24 06:35:04;;;;;;;51.97;39.85;;;19.70;99.90;;;;;;4959971;28;20079;-85
2022/08/24 06:37:30;;;;;;;46.50;36.92;;;19.70;99.90;;;;;;4977396;28;20502;-86
2022/08/24 06:39:58;;;;;;;48.05;38.53;;;19.70;99.90;;;;;;4977312;28;20093;-87
2022/08/24 06:42:24;;;;;;;54.85;40.72;;;19.60;99.90;;;;;;4976173;28;20090;-86
2022/08/24 06:44:51;;;;;;;52.15;41.53;;;19.80;99.90;;;;;;4975937;28;20507;-86
2022/08/24 06:47:17;;;;;;;49.20;39.80;;;19.80;99.90;;;;;;4977046;28;20053;-86
2022/08/24 06:49:43;;;;;;;50.97;39.95;;;19.80;99.90;;;;;;4975702;28;20051;-86
2022/08/24 06:52:12;;;;;;;54.08;41.10;;;20.00;99.90;;;;;;4976198;28;20057;-86
2022/08/24 06:54:38;;;;;;;45.03;38.35;;;19.80;99.90;;;;;;4977032;28;20046;-78
2022/08/24 06:57:05;;;;;;;48.63;37.85;;;20.00;99.90;;;;;;4976677;28;20043;-78
2022/08/24 06:59:32;;;;;;;54.83;42.22;;;19.90;99.90;;;;;;4976736;28;20439;-78
2022/08/24 07:01:58;;;;;;;51.72;41.30;;;20.00;99.90;;;;;;4990908;28;20482;-77
2022/08/24 07:04:26;;;;;;;53.03;43.45;;;20.10;99.90;;;;;;4995910;28;20038;-77
2022/08/24 07:06:52;;;;;;;53.47;42.20;;;20.10;99.90;;;;;;4996375;28;20046;-78
2022/08/24 07:09:18;;;;;;;51.90;43.35;;;20.30;99.90;;;;;;4996159;28;20046;-77
2022/08/24 07:11:44;;;;;;;51.83;42.50;;;20.30;99.90;;;;;;4996186;28;20046;-77
2022/08/24 07:14:10;;;;;;;55.03;42.58;;;20.30;99.90;;;;;;4995553;28;20085;-78
2022/08/24 07:16:36;;;;;;;59.03;44.35;;;20.50;99.90;;;;;;4994909;28;20558;-78
2022/08/24 07:19:04;;;;;;;52.90;41.47;;;20.60;99.90;;;;;;4978602;28;20085;-77
2022/08/24 07:21:31;;;;;;;49.63;39.50;;;20.60;99.90;;;;;;4996145;28;20465;-77
2022/08/24 07:23:58;;;;;;;50.60;40.33;;;20.80;99.90;;;;;;4995216;28;20050;-77
2022/08/24 07:26:26;;;;;;;44.13;37.80;;;20.70;99.90;;;;;;4995133;28;20038;-77
2022/08/24 07:29:04;;;;;;;47.80;39.40;;;20.80;99.90;;;;;;4995816;28;20173;-77
2022/08/24 07:31:34;;;;;;;46.97;39.28;;;20.80;99.90;;;;;;4995531;28;20046;-78
2022/08/24 07:34:00;;;;;;;46.95;40.33;;;20.90;99.90;;;;;;4995914;28;20103;-77
2022/08/24 07:36:26;;;;;;;45.85;39.92;;;21.00;99.90;;;;;;4995240;28;20050;-78
2022/08/24 07:38:52;;;;;;;49.33;39.70;;;21.20;99.90;;;;;;4994771;28;20426;-76
2022/08/24 07:41:24;;;;;;;44.10;37.97;;;21.10;99.90;;;;;;4995544;28;20502;-79
2022/08/24 07:43:51;;;;;;;41.65;36.55;;;21.40;99.90;;;;;;4994217;28;20133;-78
2022/08/24 07:46:17;;;;;;;44.22;36.13;;;21.40;99.90;;;;;;4994727;28;20213;-79
2022/08/24 07:48:43;;;;;;;40.97;36.40;;;21.40;99.90;;;;;;4994377;28;20166;-78
2022/08/24 07:51:12;;;;;;;35.08;31.27;;;21.40;99.90;;;;;;4994308;28;20050;-78
2022/08/24 07:53:38;;;;;;;30.30;27.08;;;21.70;99.90;;;;;;4994111;28;20054;-78
2022/08/24 07:56:04;;;;;;;29.77;26.58;;;21.50;99.90;;;;;;4995345;28;20046;-76
2022/08/24 07:58:31;;;;;;;30.98;26.88;;;21.50;99.90;;;;;;4994904;28;20047;-81
2022/08/24 08:00:57;;;;;;;27.67;24.77;;;21.50;99.90;;;;;;4955286;28;20046;-76
2022/08/24 08:03:26;;;;;;;23.30;20.73;;;21.90;99.90;;;;;;4963153;28;20053;-76
2022/08/24 08:06:04;;;;;;;26.23;23.13;;;21.70;99.90;;;;;;4964264;28;20054;-77
2022/08/24 08:08:33;;;;;;;25.08;22.45;;;21.80;99.90;;;;;;4950356;28;20123;-77
2022/08/24 08:11:00;;;;;;;24.83;22.25;;;22.10;99.90;;;;;;4964184;28;20043;-76
2022/08/24 08:13:26;;;;;;;25.98;22.75;;;22.10;99.90;;;;;;4948491;28;20047;-75
2022/08/24 08:15:52;;;;;;;24.38;21.88;;;22.10;99.90;;;;;;4965384;28;20059;-75
2022/08/24 08:18:18;;;;;;;23.65;21.23;;;22.00;99.90;;;;;;4964533;28;20055;-75
2022/08/24 08:20:44;;;;;;;21.48;19.23;;;22.20;99.90;;;;;;4966280;28;20055;-75
2022/08/24 08:25:56;;;;;;;20.58;18.33;;;22.30;99.90;;;;;;4965125;28;20047;-75
2022/08/24 08:28:23;;;;;;;18.75;16.75;;;22.30;99.90;;;;;;4965317;28;20515;-76
2022/08/24 08:30:51;;;;;;;20.35;18.25;;;22.70;99.90;;;;;;4965173;28;20130;-75
2022/08/24 08:33:17;;;;;;;18.30;16.35;;;22.30;99.90;;;;;;4964453;28;20475;-75
2022/08/24 08:35:43;;;;;;;14.48;12.93;;;22.40;99.90;;;;;;4964856;28;20042;-75
2022/08/24 08:38:10;;;;;;;12.02;10.85;;;22.50;99.90;;;;;;4963372;28;20533;-77
2022/08/24 08:40:59;;;;;;;11.65;10.00;;;22.70;99.90;;;;;;4968471;28;20090;-76
2022/08/24 08:43:51;;;;;;;10.27;8.82;;;22.60;99.90;;;;;;4962992;28;20050;-75
2022/08/24 08:46:28;;;;;;;13.18;10.35;;;22.50;99.90;;;;;;4967420;28;20133;-76
2022/08/24 08:49:24;;;;;;;11.27;9.02;;;22.70;99.90;;;;;;4970078;28;20125;-75
2022/08/24 08:52:07;;;;;;;13.13;9.77;;;22.70;99.90;;;;;;4967190;28;20043;-75
2022/08/24 08:54:43;;;;;;;10.60;9.60;;;22.80;99.90;;;;;;4954943;28;20073;-75
2022/08/24 08:57:37;;;;;;;9.63;7.50;;;22.70;99.90;;;;;;4967472;28;20511;-76
2022/08/24 09:00:11;;;;;;;8.50;6.93;;;23.10;99.90;;;;;;4968861;28;20043;-76
2022/08/24 09:03:05;;;;;;;7.57;6.65;;;22.90;99.90;;;;;;4964525;28;20043;-76
2022/08/24 09:05:42;;;;;;;7.40;5.32;;;23.20;99.90;;;;;;4966206;28;20043;-76
2022/08/24 09:08:24;;;;;;;6.60;5.18;;;23.30;99.90;;;;;;4968255;28;20531;-75
2022/08/24 09:10:56;;;;;;;5.70;4.90;;;23.10;99.90;;;;;;4964584;28;20090;-75
2022/08/24 09:13:49;;;;;;;6.25;4.78;;;23.30;99.90;;;;;;4967074;28;20166;-76
2022/08/24 09:16:18;;;;;;;;;;;23.20;99.90;;;;;;4967036;28;20403;-75
2022/08/24 09:18:53;;;;;;;8.40;5.85;;;23.20;99.90;;;;;;4964958;28;19996;-75
2022/08/24 09:21:53;;;;;;;8.30;6.25;;;23.30;99.90;;;;;;4968129;28;20042;-76
2022/08/24 09:24:51;;;;;;;8.82;6.18;;;23.40;99.90;;;;;;4967030;28;20085;-76
2022/08/24 09:27:32;;;;;;;7.97;6.63;;;23.40;99.90;;;;;;4967879;28;20129;-76
2022/08/24 09:30:12;;;;;;;6.93;5.57;;;23.30;99.90;;;;;;4968392;28;20529;-76
2022/08/24 09:32:57;;;;;;;6.57;5.68;;;23.50;99.90;;;;;;4966590;28;20069;-76
2022/08/24 09:36:07;;;;;;;6.35;5.63;;;23.40;99.90;;;;;;4967016;28;20043;-76
2022/08/24 09:39:06;;;;;;;9.25;6.10;;;23.50;99.90;;;;;;4962841;28;20054;-75
2022/08/24 09:42:10;;;;;;;5.30;4.45;;;23.50;99.90;;;;;;4959700;28;20170;-75
2022/08/24 09:44:48;;;;;;;7.45;6.75;;;23.60;99.90;;;;;;4956398;28;20051;-75
2022/08/24 09:47:54;;;;;;;8.07;6.32;;;23.70;99.90;;;;;;4963963;28;20050;-75
2022/08/24 09:50:33;;;;;;;7.38;4.63;;;23.70;99.90;;;;;;4958891;28;20050;-75
2022/08/24 09:53:23;;;;;;;8.63;5.00;;;23.90;99.90;;;;;;4953624;28;20050;-75
2022/08/24 09:56:18;;;;;;;5.70;4.55;;;23.90;99.90;;;;;;4962646;28;20043;-74
2022/08/24 09:59:10;;;;;;;6.40;4.80;;;23.90;99.90;;;;;;4966816;28;20266;-75
2022/08/24 10:02:13;;;;;;;6.32;5.35;;;24.00;99.90;;;;;;4962742;28;20051;-73
2022/08/24 10:04:54;;;;;;;5.18;4.68;;;24.10;99.90;;;;;;4960778;28;20122;-73
2022/08/24 10:07:30;;;;;;;6.72;5.20;;;24.00;99.90;;;;;;4964579;28;20499;-73
2022/08/24 10:10:19;;;;;;;6.63;5.35;;;24.20;99.90;;;;;;4977176;28;20051;-73
2022/08/24 10:13:17;;;;;;;7.90;7.10;;;24.30;99.90;;;;;;4964941;28;20047;-73
2022/08/24 10:16:08;;;;;;;7.07;6.13;;;24.20;99.90;;;;;;4959652;28;20058;-73
2022/08/24 10:19:15;;;;;;;7.18;6.45;;;24.30;99.90;;;;;;4956125;28;20062;-73
2022/08/24 10:21:53;;;;;;;8.00;7.20;;;24.50;99.90;;;;;;4890069;29;20083;-73
2022/08/24 10:24:36;;;;;;;7.45;6.68;;;24.40;99.90;;;;;;4957910;28;20499;-73
2022/08/24 10:27:55;;;;;;;8.45;7.15;;;24.60;99.90;;;;;;4965675;28;20403;-73
2022/08/24 10:30:39;;;;;;;8.77;7.95;;;24.70;99.90;;;;;;4966983;28;20047;-75
2022/08/24 10:33:23;;;;;;;8.15;7.25;;;24.70;99.90;;;;;;4964962;28;20414;-73
2022/08/24 10:36:04;;;;;;;7.03;6.35;;;24.80;99.90;;;;;;4971396;28;20077;-73
2022/08/24 10:43:32;;;;;;;7.18;6.22;;;24.70;99.90;;;;;;4969003;28;20058;-79
2022/08/24 10:45:05;;;;;;;8.80;7.90;;;25.00;99.90;;;;;;4969846;28;20080;-81
2022/08/24 10:47:35;;;;;;;8.82;6.40;;;25.00;99.90;;;;;;4969444;28;20055;-83
2022/08/24 10:50:34;;;;;;;6.28;4.03;;;25.00;99.90;;;;;;4967052;28;20070;-80
2022/08/24 10:53:20;;;;;;;5.57;4.97;;;25.10;99.90;;;;;;4968779;28;20082;-82
2022/08/24 10:55:56;;;;;;;5.70;4.03;;;25.00;99.90;;;;;;4965892;28;20507;-81
2022/08/24 10:58:42;;;;;;;6.72;4.72;;;25.20;99.90;;;;;;4968751;28;20069;-81
2022/08/24 11:01:28;;;;;;;4.95;4.43;;;25.20;99.90;;;;;;4968708;28;20090;-82
2022/08/24 11:04:16;;;;;;;4.60;3.25;;;25.10;99.90;;;;;;4970367;28;20043;-81
2022/08/24 11:07:02;;;;;;;5.25;4.70;;;25.20;99.90;;;;;;4967948;28;20117;-79
2022/08/24 11:09:54;;;;;;;5.05;3.28;;;25.20;99.90;;;;;;4967353;28;20060;-80
2022/08/24 11:12:39;;;;;;;4.15;2.90;;;25.30;99.90;;;;;;4971529;28;20082;-80
2022/08/24 11:15:16;;;;;;;5.05;2.50;;;25.20;99.90;;;;;;4955831;28;21216;-80
2022/08/24 11:18:02;;;;;;;4.65;3.30;;;25.60;99.90;;;;;;4967007;28;20055;-80
2022/08/24 11:20:35;;;;;;;5.03;3.67;;;25.30;99.90;;;;;;4969071;28;20055;-81
2022/08/24 11:23:03;;;;;;;4.18;3.30;;;25.40;99.90;;;;;;4969978;28;20054;-82
2022/08/24 11:25:32;;;;;;;4.20;3.50;;;25.50;99.90;;;;;;4970621;28;20134;-81
2022/08/24 11:28:35;;;;;;;4.47;3.28;;;25.50;99.90;;;;;;4968495;28;20038;-81
2022/08/24 11:31:02;;;;;;;5.68;3.92;;;25.60;99.90;;;;;;4964818;28;20062;-81
2022/08/24 11:33:51;;;;;;;3.42;3.13;;;25.70;99.90;;;;;;4950623;28;20133;-80
2022/08/24 11:36:24;;;;;;;3.75;3.40;;;25.70;99.90;;;;;;4970090;28;20039;-80
2022/08/24 11:39:09;;;;;;;4.60;2.22;;;25.80;99.90;;;;;;4968314;28;20078;-79
2022/08/24 11:41:47;;;;;;;5.00;3.15;;;25.90;99.90;;;;;;4969456;28;20093;-81
2022/08/24 11:44:45;;;;;;;4.13;2.28;;;25.80;99.90;;;;;;4973306;28;20065;-80
2022/08/24 11:47:29;;;;;;;4.25;3.35;;;25.80;99.90;;;;;;4935403;28;20106;-81
2022/08/24 11:50:05;;;;;;;9.15;2.67;;;26.30;99.90;;;;;;4969656;28;20126;-76
2022/08/24 11:53:00;;;;;;;2.90;1.38;;;26.00;99.90;;;;;;4968378;28;20495;-78
2022/08/24 11:55:32;;;;;;;1.60;1.42;;;26.30;99.90;;;;;;4940599;28;20050;-79
2022/08/24 11:58:26;;;;;;;4.18;1.70;;;26.10;99.90;;;;;;4965801;28;20047;-79
2022/08/24 12:01:01;;;;;;;3.00;1.83;;;26.10;99.90;;;;;;4966132;28;20051;-77
2022/08/24 12:03:49;;;;;;;1.90;1.25;;;26.30;99.90;;;;;;4965115;28;20542;-79
2022/08/24 12:06:44;;;;;;;3.45;1.48;;;26.20;99.90;;;;;;4965106;28;20074;-80
2022/08/24 12:09:49;;;;;;;2.67;1.60;;;26.20;99.90;;;;;;4965747;28;20070;-78
2022/08/24 12:12:30;;;;;;;1.50;1.27;;;26.20;99.90;;;;;;4955674;28;20082;-77
2022/08/24 12:15:05;;;;;;;1.60;1.30;;;26.30;99.90;;;;;;4964366;28;20047;-79
2022/08/24 12:17:44;;;;;;;3.65;1.20;;;26.40;99.90;;;;;;4948613;28;20047;-83
2022/08/24 12:20:28;;;;;;;2.58;1.98;;;26.40;99.90;;;;;;4964103;28;20053;-81
2022/08/24 12:23:02;;;;;;;2.60;1.48;;;26.50;99.90;;;;;;4965626;28;20097;-80
2022/08/24 12:28:44;;;;;;;4.10;2.10;;;26.60;99.90;;;;;;4965945;28;20053;-80
2022/08/24 12:31:19;;;;;;;5.30;2.15;;;26.50;99.90;;;;;;4964180;28;20043;-82
2022/08/24 12:33:50;;;;;;;1.70;1.60;;;26.50;99.90;;;;;;4964287;28;20050;-82
2022/08/24 12:36:53;;;;;;;5.43;2.05;;;26.60;99.90;;;;;;4964896;28;20042;-81
2022/08/24 12:39:27;;;;;;;3.38;1.80;;;26.60;99.90;;;;;;4963075;28;20062;-81
2022/08/24 12:42:05;;;;;;;3.80;1.83;;;26.60;99.90;;;;;;4964226;28;20051;-82
2022/08/24 12:44:42;;;;;;;2.28;1.60;;;26.70;99.90;;;;;;4964431;28;20109;-81
2022/08/24 12:47:08;;;;;;;2.70;1.55;;;26.70;99.90;;;;;;4964627;28;20053;-81
2022/08/24 12:49:44;;;;;;;4.70;1.70;;;26.80;99.90;;;;;;4964148;28;20380;-82
2022/08/24 12:52:35;;;;;;;3.83;1.38;;;26.90;99.90;;;;;;4964090;28;20047;-81
2022/08/24 12:55:39;;;;;;;4.07;1.70;;;26.90;99.90;;;;;;4965449;28;20483;-82
2022/08/24 12:58:21;;;;;;;2.63;1.55;;;27.00;99.90;;;;;;4963844;28;20054;-81
2022/08/24 13:00:48;;;;;;;2.78;1.55;;;27.00;99.90;;;;;;4965142;28;20043;-80
2022/08/24 13:03:30;;;;;;;3.67;1.40;;;27.10;99.90;;;;;;4951682;28;20447;-81
2022/08/24 13:05:57;;;;;;;;;;;27.10;99.90;;;;;;4971890;28;20451;-80
2022/08/24 13:08:40;;;;;;;2.97;1.40;;;27.10;99.90;;;;;;4967871;28;19930;-80
2022/08/24 13:11:27;;;;;;;2.28;1.30;;;27.10;99.90;;;;;;4968826;28;20043;-81
2022/08/24 13:13:56;;;;;;;4.25;1.67;;;27.00;99.90;;;;;;4969197;28;20044;-82
2022/08/24 13:16:55;;;;;;;2.53;1.45;;;27.00;99.90;;;;;;4969626;28;20051;-81